sensor_id;sensor_type;location;lat;lon;timestamp;temperature;humidity
816;DHT22;25928;51.062;13.752;2022-12-08T00:01:24;6.30;1.00
816;DHT22;25928;51.062;13.752;2022-12-08T00:03:51;6.40;1.00
816;DHT22;25928;51.062;13.752;2022-12-08T00:06:25;6.40;1.00
816;DHT22;25928;51.062;13.752;2022-12-08T00:09:18;6.50;1.00
816;DHT22;25928;51.062;13.752;2022-12-08T00:11:56;6.40;1.00
816;DHT22;25928;51.062;13.752;2022-12-08T00:14:28;6.40;1.00
816;DHT22;25928;51.062;13.752;2022-12-08T00:16:54;6.30;1.00
816;DHT22;25928;51.062;13.752;2022-12-08T00:19:20;6.40;1.00
816;DHT22;25928;51.062;13.752;2022-12-08T00:21:46;6.40;1.00
816;DHT22;25928;51.062;13.752;2022-12-08T00:24:12;6.40;1.00
816;DHT22;25928;51.062;13.752;2022-12-08T00:26:37;6.40;1.00
816;DHT22;25928;51.062;13.752;2022-12-08T00:29:04;6.40;1.00
816;DHT22;25928;51.062;13.752;2022-12-08T00:31:30;6.50;1.00
816;DHT22;25928;51.062;13.752;2022-12-08T00:33:56;6.50;1.00
816;DHT22;25928;51.062;13.752;2022-12-08T00:36:22;6.50;1.00
816;DHT22;25928;51.062;13.752;2022-12-08T00:38:48;6.40;1.00
816;DHT22;25928;51.062;13.752;2022-12-08T00:41:19;6.40;1.00
816;DHT22;25928;51.062;13.752;2022-12-08T00:44:06;6.40;1.00
816;DHT22;25928;51.062;13.752;2022-12-08T00:46:32;6.40;1.00
816;DHT22;25928;51.062;13.752;2022-12-08T00:48:57;6.30;1.00
816;DHT22;25928;51.062;13.752;2022-12-08T00:51:23;6.30;1.00
816;DHT22;25928;51.062;13.752;2022-12-08T00:53:49;6.20;1.00
816;DHT22;25928;51.062;13.752;2022-12-08T00:56:14;6.20;1.00
816;DHT22;25928;51.062;13.752;2022-12-08T00:58:40;6.20;1.00
816;DHT22;25928;51.062;13.752;2022-12-08T01:01:14;6.20;1.00
816;DHT22;25928;51.062;13.752;2022-12-08T01:03:41;6.30;1.00
816;DHT22;25928;51.062;13.752;2022-12-08T01:06:07;6.40;1.00
816;DHT22;25928;51.062;13.752;2022-12-08T01:08:35;6.40;1.00
816;DHT22;25928;51.062;13.752;2022-12-08T01:11:03;6.40;1.00
816;DHT22;25928;51.062;13.752;2022-12-08T01:13:29;6.40;1.00
816;DHT22;25928;51.062;13.752;2022-12-08T01:15:54;6.40;1.00
816;DHT22;25928;51.062;13.752;2022-12-08T01:18:20;6.40;1.00
816;DHT22;25928;51.062;13.752;2022-12-08T01:20:46;6.40;1.00
816;DHT22;25928;51.062;13.752;2022-12-08T01:23:11;6.50;1.00
816;DHT22;25928;51.062;13.752;2022-12-08T01:25:37;6.30;1.00
816;DHT22;25928;51.062;13.752;2022-12-08T01:28:02;6.20;1.00
816;DHT22;25928;51.062;13.752;2022-12-08T01:30:28;6.20;1.00
816;DHT22;25928;51.062;13.752;2022-12-08T01:32:54;6.10;1.00
816;DHT22;25928;51.062;13.752;2022-12-08T01:35:19;6.20;1.00
816;DHT22;25928;51.062;13.752;2022-12-08T01:37:45;6.30;1.00
816;DHT22;25928;51.062;13.752;2022-12-08T01:40:11;6.20;1.00
816;DHT22;25928;51.062;13.752;2022-12-08T01:42:37;6.10;1.00
816;DHT22;25928;51.062;13.752;2022-12-08T01:45:35;6.10;1.00
816;DHT22;25928;51.062;13.752;2022-12-08T01:48:07;6.00;1.00
816;DHT22;25928;51.062;13.752;2022-12-08T01:50:37;6.00;1.00
816;DHT22;25928;51.062;13.752;2022-12-08T01:53:09;5.90;1.00
816;DHT22;25928;51.062;13.752;2022-12-08T01:55:41;5.90;1.00
816;DHT22;25928;51.062;13.752;2022-12-08T01:58:15;5.90;1.00
816;DHT22;25928;51.062;13.752;2022-12-08T02:00:42;6.00;1.00
816;DHT22;25928;51.062;13.752;2022-12-08T02:03:13;5.90;1.00
816;DHT22;25928;51.062;13.752;2022-12-08T02:05:40;5.90;1.00
816;DHT22;25928;51.062;13.752;2022-12-08T02:08:09;5.90;1.00
816;DHT22;25928;51.062;13.752;2022-12-08T02:10:38;5.80;1.00
816;DHT22;25928;51.062;13.752;2022-12-08T02:13:07;5.70;1.00
816;DHT22;25928;51.062;13.752;2022-12-08T02:21:14;5.60;1.00
816;DHT22;25928;51.062;13.752;2022-12-08T02:24:28;5.60;1.00
816;DHT22;25928;51.062;13.752;2022-12-08T02:30:07;5.50;1.00
816;DHT22;25928;51.062;13.752;2022-12-08T02:43:56;5.60;1.00
816;DHT22;25928;51.062;13.752;2022-12-08T02:46:31;5.60;1.00
816;DHT22;25928;51.062;13.752;2022-12-08T02:49:01;5.80;1.00
816;DHT22;25928;51.062;13.752;2022-12-08T02:51:27;5.70;1.00
816;DHT22;25928;51.062;13.752;2022-12-08T02:53:52;5.80;1.00
816;DHT22;25928;51.062;13.752;2022-12-08T02:56:40;5.80;1.00
816;DHT22;25928;51.062;13.752;2022-12-08T02:59:40;5.90;1.00
816;DHT22;25928;51.062;13.752;2022-12-08T03:13:52;5.90;1.00
816;DHT22;25928;51.062;13.752;2022-12-08T03:16:29;6.00;1.00
816;DHT22;25928;51.062;13.752;2022-12-08T03:18:59;6.10;1.00
816;DHT22;25928;51.062;13.752;2022-12-08T03:21:26;6.20;1.00
816;DHT22;25928;51.062;13.752;2022-12-08T03:23:54;6.20;1.00
816;DHT22;25928;51.062;13.752;2022-12-08T03:26:29;6.20;1.00
816;DHT22;25928;51.062;13.752;2022-12-08T03:28:56;6.30;1.00
816;DHT22;25928;51.062;13.752;2022-12-08T03:31:24;6.20;1.00
816;DHT22;25928;51.062;13.752;2022-12-08T03:33:51;6.10;1.00
816;DHT22;25928;51.062;13.752;2022-12-08T03:36:19;6.20;1.00
816;DHT22;25928;51.062;13.752;2022-12-08T03:38:47;6.40;1.00
816;DHT22;25928;51.062;13.752;2022-12-08T03:41:14;6.30;1.00
816;DHT22;25928;51.062;13.752;2022-12-08T03:43:50;6.30;1.00
816;DHT22;25928;51.062;13.752;2022-12-08T03:46:17;6.20;1.00
816;DHT22;25928;51.062;13.752;2022-12-08T03:48:43;6.20;1.00
816;DHT22;25928;51.062;13.752;2022-12-08T03:51:09;6.20;1.00
816;DHT22;25928;51.062;13.752;2022-12-08T03:53:35;6.20;1.00
816;DHT22;25928;51.062;13.752;2022-12-08T03:56:04;6.20;1.00
816;DHT22;25928;51.062;13.752;2022-12-08T03:58:30;6.30;1.00
816;DHT22;25928;51.062;13.752;2022-12-08T04:00:56;6.40;1.00
816;DHT22;25928;51.062;13.752;2022-12-08T04:03:21;6.40;1.00
816;DHT22;25928;51.062;13.752;2022-12-08T04:05:47;6.30;1.00
816;DHT22;25928;51.062;13.752;2022-12-08T04:08:12;6.40;1.00
816;DHT22;25928;51.062;13.752;2022-12-08T04:10:38;6.40;1.00
816;DHT22;25928;51.062;13.752;2022-12-08T04:13:04;6.30;1.00
816;DHT22;25928;51.062;13.752;2022-12-08T04:15:29;7.10;1.00
816;DHT22;25928;51.062;13.752;2022-12-08T04:17:55;6.40;1.00
816;DHT22;25928;51.062;13.752;2022-12-08T04:20:21;6.40;1.00
816;DHT22;25928;51.062;13.752;2022-12-08T04:22:46;6.40;1.00
816;DHT22;25928;51.062;13.752;2022-12-08T04:25:12;6.30;1.00
816;DHT22;25928;51.062;13.752;2022-12-08T04:27:37;6.20;1.00
816;DHT22;25928;51.062;13.752;2022-12-08T04:30:03;6.20;1.00
816;DHT22;25928;51.062;13.752;2022-12-08T04:32:29;6.20;1.00
816;DHT22;25928;51.062;13.752;2022-12-08T04:34:55;6.30;1.00
816;DHT22;25928;51.062;13.752;2022-12-08T04:37:20;6.40;1.00
816;DHT22;25928;51.062;13.752;2022-12-08T04:39:46;6.40;1.00
816;DHT22;25928;51.062;13.752;2022-12-08T04:42:11;6.50;1.00
816;DHT22;25928;51.062;13.752;2022-12-08T04:44:37;6.40;1.00
816;DHT22;25928;51.062;13.752;2022-12-08T04:47:02;6.30;1.00
816;DHT22;25928;51.062;13.752;2022-12-08T04:49:28;6.10;1.00
816;DHT22;25928;51.062;13.752;2022-12-08T04:51:53;6.20;1.00
816;DHT22;25928;51.062;13.752;2022-12-08T04:54:19;6.20;1.00
816;DHT22;25928;51.062;13.752;2022-12-08T04:56:45;6.30;1.00
816;DHT22;25928;51.062;13.752;2022-12-08T04:59:10;6.40;1.00
816;DHT22;25928;51.062;13.752;2022-12-08T05:01:36;6.40;1.00
816;DHT22;25928;51.062;13.752;2022-12-08T05:04:02;6.50;1.00
816;DHT22;25928;51.062;13.752;2022-12-08T05:06:27;6.40;1.00
816;DHT22;25928;51.062;13.752;2022-12-08T05:08:53;6.40;1.00
816;DHT22;25928;51.062;13.752;2022-12-08T05:11:18;6.30;1.00
816;DHT22;25928;51.062;13.752;2022-12-08T05:13:44;6.20;1.00
816;DHT22;25928;51.062;13.752;2022-12-08T05:16:12;6.10;1.00
816;DHT22;25928;51.062;13.752;2022-12-08T05:18:39;6.00;1.00
816;DHT22;25928;51.062;13.752;2022-12-08T05:21:05;6.00;1.00
816;DHT22;25928;51.062;13.752;2022-12-08T05:23:31;5.90;1.00
816;DHT22;25928;51.062;13.752;2022-12-08T05:25:57;6.00;1.00
816;DHT22;25928;51.062;13.752;2022-12-08T05:28:22;5.90;1.00
816;DHT22;25928;51.062;13.752;2022-12-08T05:30:48;5.90;1.00
816;DHT22;25928;51.062;13.752;2022-12-08T05:33:14;5.90;1.00
816;DHT22;25928;51.062;13.752;2022-12-08T05:35:40;6.10;1.00
816;DHT22;25928;51.062;13.752;2022-12-08T05:38:06;6.00;1.00
816;DHT22;25928;51.062;13.752;2022-12-08T05:40:31;5.90;1.00
816;DHT22;25928;51.062;13.752;2022-12-08T05:42:57;5.90;1.00
816;DHT22;25928;51.062;13.752;2022-12-08T05:45:23;5.90;1.00
816;DHT22;25928;51.062;13.752;2022-12-08T05:47:48;5.90;1.00
816;DHT22;25928;51.062;13.752;2022-12-08T05:50:14;6.00;1.00
816;DHT22;25928;51.062;13.752;2022-12-08T05:52:40;6.10;1.00
816;DHT22;25928;51.062;13.752;2022-12-08T05:55:05;6.00;1.00
816;DHT22;25928;51.062;13.752;2022-12-08T05:57:31;6.00;1.00
816;DHT22;25928;51.062;13.752;2022-12-08T05:59:57;6.10;1.00
816;DHT22;25928;51.062;13.752;2022-12-08T06:02:24;6.10;1.00
816;DHT22;25928;51.062;13.752;2022-12-08T06:04:50;6.40;1.00
816;DHT22;25928;51.062;13.752;2022-12-08T06:07:16;6.20;1.00
816;DHT22;25928;51.062;13.752;2022-12-08T06:09:41;6.20;1.00
816;DHT22;25928;51.062;13.752;2022-12-08T06:12:07;6.10;1.00
816;DHT22;25928;51.062;13.752;2022-12-08T06:14:37;6.10;1.00
816;DHT22;25928;51.062;13.752;2022-12-08T06:17:03;6.20;1.00
816;DHT22;25928;51.062;13.752;2022-12-08T06:19:28;6.20;1.00
816;DHT22;25928;51.062;13.752;2022-12-08T06:21:54;6.20;1.00
816;DHT22;25928;51.062;13.752;2022-12-08T06:24:19;6.20;1.00
816;DHT22;25928;51.062;13.752;2022-12-08T06:26:45;6.30;1.00
816;DHT22;25928;51.062;13.752;2022-12-08T06:29:11;6.20;1.00
816;DHT22;25928;51.062;13.752;2022-12-08T06:31:37;6.20;1.00
816;DHT22;25928;51.062;13.752;2022-12-08T06:34:03;6.20;1.00
816;DHT22;25928;51.062;13.752;2022-12-08T06:36:28;6.20;1.00
816;DHT22;25928;51.062;13.752;2022-12-08T06:38:55;6.20;1.00
816;DHT22;25928;51.062;13.752;2022-12-08T06:41:20;6.30;1.00
816;DHT22;25928;51.062;13.752;2022-12-08T06:43:46;6.30;1.00
816;DHT22;25928;51.062;13.752;2022-12-08T06:46:17;6.30;1.00
816;DHT22;25928;51.062;13.752;2022-12-08T06:48:43;6.30;1.00
816;DHT22;25928;51.062;13.752;2022-12-08T06:51:13;6.30;1.00
816;DHT22;25928;51.062;13.752;2022-12-08T06:53:39;6.30;1.00
816;DHT22;25928;51.062;13.752;2022-12-08T06:56:05;6.40;1.00
816;DHT22;25928;51.062;13.752;2022-12-08T06:58:31;6.50;1.00
816;DHT22;25928;51.062;13.752;2022-12-08T07:01:02;6.40;1.00
816;DHT22;25928;51.062;13.752;2022-12-08T07:03:27;6.50;1.00
816;DHT22;25928;51.062;13.752;2022-12-08T07:05:55;6.50;1.00
816;DHT22;25928;51.062;13.752;2022-12-08T07:08:21;6.40;1.00
816;DHT22;25928;51.062;13.752;2022-12-08T07:10:46;6.30;1.00
816;DHT22;25928;51.062;13.752;2022-12-08T07:13:12;6.30;1.00
816;DHT22;25928;51.062;13.752;2022-12-08T07:15:37;6.30;1.00
816;DHT22;25928;51.062;13.752;2022-12-08T07:18:03;6.40;1.00
816;DHT22;25928;51.062;13.752;2022-12-08T07:20:29;6.30;1.00
816;DHT22;25928;51.062;13.752;2022-12-08T07:22:54;6.40;1.00
816;DHT22;25928;51.062;13.752;2022-12-08T07:25:20;6.30;1.00
816;DHT22;25928;51.062;13.752;2022-12-08T07:27:46;6.20;1.00
816;DHT22;25928;51.062;13.752;2022-12-08T07:30:12;6.40;1.00
816;DHT22;25928;51.062;13.752;2022-12-08T07:32:39;6.20;1.00
816;DHT22;25928;51.062;13.752;2022-12-08T07:35:05;6.20;1.00
816;DHT22;25928;51.062;13.752;2022-12-08T07:37:35;6.20;1.00
816;DHT22;25928;51.062;13.752;2022-12-08T07:40:03;6.20;1.00
816;DHT22;25928;51.062;13.752;2022-12-08T07:42:28;6.10;1.00
816;DHT22;25928;51.062;13.752;2022-12-08T07:44:54;6.00;1.00
816;DHT22;25928;51.062;13.752;2022-12-08T07:47:20;5.90;1.00
816;DHT22;25928;51.062;13.752;2022-12-08T07:49:45;5.90;1.00
816;DHT22;25928;51.062;13.752;2022-12-08T07:52:11;6.10;1.00
816;DHT22;25928;51.062;13.752;2022-12-08T07:54:37;6.10;1.00
816;DHT22;25928;51.062;13.752;2022-12-08T07:57:02;6.20;1.00
816;DHT22;25928;51.062;13.752;2022-12-08T07:59:30;6.20;1.00
816;DHT22;25928;51.062;13.752;2022-12-08T08:01:56;6.20;1.00
816;DHT22;25928;51.062;13.752;2022-12-08T08:04:21;6.20;1.00
816;DHT22;25928;51.062;13.752;2022-12-08T08:06:47;6.20;1.00
816;DHT22;25928;51.062;13.752;2022-12-08T08:09:12;6.30;1.00
816;DHT22;25928;51.062;13.752;2022-12-08T08:11:38;6.20;1.00
816;DHT22;25928;51.062;13.752;2022-12-08T08:14:04;6.20;1.00
816;DHT22;25928;51.062;13.752;2022-12-08T08:16:29;6.10;1.00
816;DHT22;25928;51.062;13.752;2022-12-08T08:18:55;6.10;1.00
816;DHT22;25928;51.062;13.752;2022-12-08T08:21:21;6.10;1.00
816;DHT22;25928;51.062;13.752;2022-12-08T08:23:46;6.10;1.00
816;DHT22;25928;51.062;13.752;2022-12-08T08:26:12;6.00;1.00
816;DHT22;25928;51.062;13.752;2022-12-08T08:28:38;6.00;1.00
816;DHT22;25928;51.062;13.752;2022-12-08T08:31:04;6.00;1.00
816;DHT22;25928;51.062;13.752;2022-12-08T08:33:30;6.20;1.00
816;DHT22;25928;51.062;13.752;2022-12-08T08:35:56;6.30;1.00
816;DHT22;25928;51.062;13.752;2022-12-08T08:38:22;6.20;1.00
816;DHT22;25928;51.062;13.752;2022-12-08T08:40:47;6.10;1.00
816;DHT22;25928;51.062;13.752;2022-12-08T08:43:13;6.20;1.00
816;DHT22;25928;51.062;13.752;2022-12-08T08:45:57;6.20;1.00
816;DHT22;25928;51.062;13.752;2022-12-08T08:48:24;6.20;1.00
816;DHT22;25928;51.062;13.752;2022-12-08T08:50:50;6.10;1.00
816;DHT22;25928;51.062;13.752;2022-12-08T08:53:16;6.10;1.00
816;DHT22;25928;51.062;13.752;2022-12-08T08:55:41;6.10;1.00
816;DHT22;25928;51.062;13.752;2022-12-08T08:58:07;6.10;1.00
816;DHT22;25928;51.062;13.752;2022-12-08T09:00:32;6.00;1.00
816;DHT22;25928;51.062;13.752;2022-12-08T09:02:58;6.10;1.00
816;DHT22;25928;51.062;13.752;2022-12-08T09:05:24;6.10;1.00
816;DHT22;25928;51.062;13.752;2022-12-08T09:07:49;6.10;1.00
816;DHT22;25928;51.062;13.752;2022-12-08T09:10:15;6.20;1.00
816;DHT22;25928;51.062;13.752;2022-12-08T09:12:40;6.30;1.00
816;DHT22;25928;51.062;13.752;2022-12-08T09:15:06;6.30;1.00
816;DHT22;25928;51.062;13.752;2022-12-08T09:17:32;6.40;1.00
816;DHT22;25928;51.062;13.752;2022-12-08T09:19:57;6.60;1.00
816;DHT22;25928;51.062;13.752;2022-12-08T09:22:23;6.80;1.00
816;DHT22;25928;51.062;13.752;2022-12-08T09:24:49;6.90;1.00
816;DHT22;25928;51.062;13.752;2022-12-08T09:27:14;7.20;1.00
816;DHT22;25928;51.062;13.752;2022-12-08T09:29:40;7.30;1.00
816;DHT22;25928;51.062;13.752;2022-12-08T09:32:06;7.40;1.00
816;DHT22;25928;51.062;13.752;2022-12-08T09:34:31;7.50;1.00
816;DHT22;25928;51.062;13.752;2022-12-08T09:36:57;7.60;1.00
816;DHT22;25928;51.062;13.752;2022-12-08T09:39:23;7.60;1.00
816;DHT22;25928;51.062;13.752;2022-12-08T09:41:52;7.60;1.00
816;DHT22;25928;51.062;13.752;2022-12-08T09:47:05;7.70;1.00
816;DHT22;25928;51.062;13.752;2022-12-08T09:49:40;7.70;1.00
816;DHT22;25928;51.062;13.752;2022-12-08T09:52:18;7.70;1.00
816;DHT22;25928;51.062;13.752;2022-12-08T09:54:45;7.80;1.00
816;DHT22;25928;51.062;13.752;2022-12-08T09:57:14;7.90;1.00
816;DHT22;25928;51.062;13.752;2022-12-08T09:59:45;8.00;1.00
816;DHT22;25928;51.062;13.752;2022-12-08T10:02:23;8.10;1.00
816;DHT22;25928;51.062;13.752;2022-12-08T10:04:49;8.10;1.00
816;DHT22;25928;51.062;13.752;2022-12-08T10:13:13;7.90;1.00
816;DHT22;25928;51.062;13.752;2022-12-08T10:18:32;8.00;1.00
816;DHT22;25928;51.062;13.752;2022-12-08T10:23:40;8.40;1.00
816;DHT22;25928;51.062;13.752;2022-12-08T10:26:13;8.50;1.00
816;DHT22;25928;51.062;13.752;2022-12-08T10:28:40;8.40;1.00
816;DHT22;25928;51.062;13.752;2022-12-08T10:31:09;8.50;1.00
816;DHT22;25928;51.062;13.752;2022-12-08T10:33:38;8.40;1.00
816;DHT22;25928;51.062;13.752;2022-12-08T10:36:04;8.40;1.00
816;DHT22;25928;51.062;13.752;2022-12-08T10:38:37;8.20;1.00
816;DHT22;25928;51.062;13.752;2022-12-08T10:41:12;8.20;1.00
816;DHT22;25928;51.062;13.752;2022-12-08T10:48:36;8.10;1.00
816;DHT22;25928;51.062;13.752;2022-12-08T10:51:26;8.20;1.00
816;DHT22;25928;51.062;13.752;2022-12-08T10:53:52;8.30;1.00
816;DHT22;25928;51.062;13.752;2022-12-08T10:56:18;8.30;1.00
816;DHT22;25928;51.062;13.752;2022-12-08T10:58:45;8.40;1.00
816;DHT22;25928;51.062;13.752;2022-12-08T11:01:27;8.40;1.00
816;DHT22;25928;51.062;13.752;2022-12-08T11:04:04;8.30;1.00
816;DHT22;25928;51.062;13.752;2022-12-08T11:06:36;8.40;1.00
816;DHT22;25928;51.062;13.752;2022-12-08T11:11:48;8.60;1.00
816;DHT22;25928;51.062;13.752;2022-12-08T11:16:51;8.70;1.00
816;DHT22;25928;51.062;13.752;2022-12-08T11:19:20;8.70;1.00
816;DHT22;25928;51.062;13.752;2022-12-08T11:21:46;8.60;1.00
816;DHT22;25928;51.062;13.752;2022-12-08T11:24:20;8.70;1.00
816;DHT22;25928;51.062;13.752;2022-12-08T11:27:03;8.70;1.00
816;DHT22;25928;51.062;13.752;2022-12-08T11:29:31;8.80;1.00
816;DHT22;25928;51.062;13.752;2022-12-08T11:32:07;8.90;1.00
816;DHT22;25928;51.062;13.752;2022-12-08T11:34:55;8.90;1.00
816;DHT22;25928;51.062;13.752;2022-12-08T11:39:57;8.90;1.00
816;DHT22;25928;51.062;13.752;2022-12-08T11:42:28;8.80;1.00
816;DHT22;25928;51.062;13.752;2022-12-08T11:45:04;8.90;1.00
816;DHT22;25928;51.062;13.752;2022-12-08T11:47:41;9.00;1.00
816;DHT22;25928;51.062;13.752;2022-12-08T11:50:21;9.00;1.00
816;DHT22;25928;51.062;13.752;2022-12-08T11:52:51;8.90;1.00
816;DHT22;25928;51.062;13.752;2022-12-08T11:55:47;8.70;1.00
816;DHT22;25928;51.062;13.752;2022-12-08T12:01:04;8.60;1.00
816;DHT22;25928;51.062;13.752;2022-12-08T12:03:35;8.70;1.00
816;DHT22;25928;51.062;13.752;2022-12-08T12:20:30;8.70;1.00
816;DHT22;25928;51.062;13.752;2022-12-08T12:25:26;8.90;1.00
816;DHT22;25928;51.062;13.752;2022-12-08T12:27:57;9.00;1.00
816;DHT22;25928;51.062;13.752;2022-12-08T12:30:29;9.10;1.00
816;DHT22;25928;51.062;13.752;2022-12-08T12:33:00;9.00;1.00
816;DHT22;25928;51.062;13.752;2022-12-08T12:35:39;9.10;1.00
816;DHT22;25928;51.062;13.752;2022-12-08T12:38:31;9.20;1.00
816;DHT22;25928;51.062;13.752;2022-12-08T12:41:13;9.40;1.00
816;DHT22;25928;51.062;13.752;2022-12-08T12:43:39;9.50;1.00
816;DHT22;25928;51.062;13.752;2022-12-08T12:48:51;9.50;1.00
816;DHT22;25928;51.062;13.752;2022-12-08T12:51:43;9.40;1.00
816;DHT22;25928;51.062;13.752;2022-12-08T12:56:54;9.30;1.00
816;DHT22;25928;51.062;13.752;2022-12-08T12:59:40;9.30;1.00
816;DHT22;25928;51.062;13.752;2022-12-08T13:02:26;9.30;1.00
816;DHT22;25928;51.062;13.752;2022-12-08T13:07:28;9.10;1.00
816;DHT22;25928;51.062;13.752;2022-12-08T13:09:59;8.90;1.00
816;DHT22;25928;51.062;13.752;2022-12-08T13:12:26;8.80;1.00
816;DHT22;25928;51.062;13.752;2022-12-08T13:14:58;8.60;1.00
816;DHT22;25928;51.062;13.752;2022-12-08T13:17:28;8.60;1.00
816;DHT22;25928;51.062;13.752;2022-12-08T13:19:57;8.60;1.00
816;DHT22;25928;51.062;13.752;2022-12-08T13:30:51;8.60;1.00
816;DHT22;25928;51.062;13.752;2022-12-08T13:36:17;8.70;1.00
816;DHT22;25928;51.062;13.752;2022-12-08T13:38:46;8.80;1.00
816;DHT22;25928;51.062;13.752;2022-12-08T13:41:18;8.80;1.00
816;DHT22;25928;51.062;13.752;2022-12-08T13:43:49;8.90;1.00
816;DHT22;25928;51.062;13.752;2022-12-08T13:46:27;8.90;1.00
816;DHT22;25928;51.062;13.752;2022-12-08T13:48:56;8.90;1.00
816;DHT22;25928;51.062;13.752;2022-12-08T13:51:26;8.90;1.00
816;DHT22;25928;51.062;13.752;2022-12-08T13:54:01;8.90;1.00
816;DHT22;25928;51.062;13.752;2022-12-08T13:56:29;8.70;1.00
816;DHT22;25928;51.062;13.752;2022-12-08T13:59:22;8.70;1.00
816;DHT22;25928;51.062;13.752;2022-12-08T14:01:50;8.60;1.00
816;DHT22;25928;51.062;13.752;2022-12-08T14:04:18;8.60;1.00
816;DHT22;25928;51.062;13.752;2022-12-08T14:06:46;8.50;1.00
816;DHT22;25928;51.062;13.752;2022-12-08T14:09:25;8.50;1.00
816;DHT22;25928;51.062;13.752;2022-12-08T14:11:58;8.50;1.00
816;DHT22;25928;51.062;13.752;2022-12-08T14:14:40;8.50;1.00
816;DHT22;25928;51.062;13.752;2022-12-08T14:17:13;8.50;1.00
816;DHT22;25928;51.062;13.752;2022-12-08T14:19:46;8.30;1.00
816;DHT22;25928;51.062;13.752;2022-12-08T14:22:17;8.20;1.00
816;DHT22;25928;51.062;13.752;2022-12-08T14:24:47;8.10;1.00
816;DHT22;25928;51.062;13.752;2022-12-08T14:27:22;8.00;1.00
816;DHT22;25928;51.062;13.752;2022-12-08T14:29:51;7.90;99.90
816;DHT22;25928;51.062;13.752;2022-12-08T14:32:37;7.90;99.90
816;DHT22;25928;51.062;13.752;2022-12-08T14:37:36;7.80;1.00
816;DHT22;25928;51.062;13.752;2022-12-08T14:40:06;7.90;99.90
816;DHT22;25928;51.062;13.752;2022-12-08T14:42:42;7.80;99.90
816;DHT22;25928;51.062;13.752;2022-12-08T14:45:14;7.80;99.90
816;DHT22;25928;51.062;13.752;2022-12-08T14:47:40;7.70;1.00
816;DHT22;25928;51.062;13.752;2022-12-08T14:53:11;7.70;1.00
816;DHT22;25928;51.062;13.752;2022-12-08T14:55:38;7.70;1.00
816;DHT22;25928;51.062;13.752;2022-12-08T14:58:04;7.60;1.00
816;DHT22;25928;51.062;13.752;2022-12-08T15:00:32;7.60;1.00
816;DHT22;25928;51.062;13.752;2022-12-08T15:02:58;7.50;1.00
816;DHT22;25928;51.062;13.752;2022-12-08T15:05:30;7.50;1.00
816;DHT22;25928;51.062;13.752;2022-12-08T15:08:02;7.50;1.00
816;DHT22;25928;51.062;13.752;2022-12-08T15:10:32;7.50;1.00
816;DHT22;25928;51.062;13.752;2022-12-08T15:15:49;7.40;1.00
816;DHT22;25928;51.062;13.752;2022-12-08T15:20:51;7.40;1.00
816;DHT22;25928;51.062;13.752;2022-12-08T15:23:33;7.40;1.00
816;DHT22;25928;51.062;13.752;2022-12-08T15:26:03;7.40;1.00
816;DHT22;25928;51.062;13.752;2022-12-08T15:28:29;7.40;1.00
816;DHT22;25928;51.062;13.752;2022-12-08T15:30:55;7.40;1.00
816;DHT22;25928;51.062;13.752;2022-12-08T15:33:21;7.30;1.00
816;DHT22;25928;51.062;13.752;2022-12-08T15:35:48;7.10;1.00
816;DHT22;25928;51.062;13.752;2022-12-08T15:38:23;7.00;1.00
816;DHT22;25928;51.062;13.752;2022-12-08T15:40:49;6.90;1.00
816;DHT22;25928;51.062;13.752;2022-12-08T15:43:15;6.90;1.00
816;DHT22;25928;51.062;13.752;2022-12-08T15:45:41;7.00;1.00
816;DHT22;25928;51.062;13.752;2022-12-08T15:48:14;6.90;1.00
816;DHT22;25928;51.062;13.752;2022-12-08T15:50:40;6.80;1.00
816;DHT22;25928;51.062;13.752;2022-12-08T15:53:08;6.90;1.00
816;DHT22;25928;51.062;13.752;2022-12-08T15:55:34;7.00;1.00
816;DHT22;25928;51.062;13.752;2022-12-08T15:58:00;6.90;1.00
816;DHT22;25928;51.062;13.752;2022-12-08T16:00:29;6.90;1.00
816;DHT22;25928;51.062;13.752;2022-12-08T16:02:57;7.00;1.00
816;DHT22;25928;51.062;13.752;2022-12-08T16:05:24;7.10;1.00
816;DHT22;25928;51.062;13.752;2022-12-08T16:07:50;7.00;1.00
816;DHT22;25928;51.062;13.752;2022-12-08T16:10:18;7.00;1.00
816;DHT22;25928;51.062;13.752;2022-12-08T16:12:45;7.20;1.00
816;DHT22;25928;51.062;13.752;2022-12-08T16:15:29;7.10;1.00
816;DHT22;25928;51.062;13.752;2022-12-08T16:17:56;7.00;1.00
816;DHT22;25928;51.062;13.752;2022-12-08T16:20:23;7.00;1.00
816;DHT22;25928;51.062;13.752;2022-12-08T16:22:48;7.00;1.00
816;DHT22;25928;51.062;13.752;2022-12-08T16:25:14;7.00;1.00
816;DHT22;25928;51.062;13.752;2022-12-08T16:27:40;7.00;1.00
816;DHT22;25928;51.062;13.752;2022-12-08T16:30:11;7.00;1.00
816;DHT22;25928;51.062;13.752;2022-12-08T16:32:37;7.00;1.00
816;DHT22;25928;51.062;13.752;2022-12-08T16:35:03;7.00;1.00
816;DHT22;25928;51.062;13.752;2022-12-08T16:37:29;7.10;1.00
816;DHT22;25928;51.062;13.752;2022-12-08T16:39:56;7.30;1.00
816;DHT22;25928;51.062;13.752;2022-12-08T16:42:28;7.30;1.00
816;DHT22;25928;51.062;13.752;2022-12-08T16:45:22;7.30;1.00
816;DHT22;25928;51.062;13.752;2022-12-08T16:48:00;7.30;1.00
816;DHT22;25928;51.062;13.752;2022-12-08T16:50:30;7.40;1.00
816;DHT22;25928;51.062;13.752;2022-12-08T16:53:03;7.40;1.00
816;DHT22;25928;51.062;13.752;2022-12-08T16:55:28;7.40;1.00
816;DHT22;25928;51.062;13.752;2022-12-08T16:57:55;7.40;1.00
816;DHT22;25928;51.062;13.752;2022-12-08T17:00:23;7.40;1.00
816;DHT22;25928;51.062;13.752;2022-12-08T17:02:49;7.50;1.00
816;DHT22;25928;51.062;13.752;2022-12-08T17:05:16;7.30;1.00
816;DHT22;25928;51.062;13.752;2022-12-08T17:07:43;7.40;1.00
816;DHT22;25928;51.062;13.752;2022-12-08T17:10:12;7.50;1.00
816;DHT22;25928;51.062;13.752;2022-12-08T17:12:38;7.50;1.00
816;DHT22;25928;51.062;13.752;2022-12-08T17:15:05;7.40;1.00
816;DHT22;25928;51.062;13.752;2022-12-08T17:17:32;7.30;1.00
816;DHT22;25928;51.062;13.752;2022-12-08T17:20:03;7.30;1.00
816;DHT22;25928;51.062;13.752;2022-12-08T17:22:31;7.30;1.00
816;DHT22;25928;51.062;13.752;2022-12-08T17:24:57;7.30;1.00
816;DHT22;25928;51.062;13.752;2022-12-08T17:27:23;7.30;1.00
816;DHT22;25928;51.062;13.752;2022-12-08T17:29:48;7.40;1.00
816;DHT22;25928;51.062;13.752;2022-12-08T17:32:14;7.40;1.00
816;DHT22;25928;51.062;13.752;2022-12-08T17:34:40;7.30;1.00
816;DHT22;25928;51.062;13.752;2022-12-08T17:37:05;7.30;1.00
816;DHT22;25928;51.062;13.752;2022-12-08T17:39:31;7.40;1.00
816;DHT22;25928;51.062;13.752;2022-12-08T17:41:57;7.40;1.00
816;DHT22;25928;51.062;13.752;2022-12-08T17:44:22;7.30;1.00
816;DHT22;25928;51.062;13.752;2022-12-08T17:46:48;7.30;1.00
816;DHT22;25928;51.062;13.752;2022-12-08T17:49:22;7.20;1.00
816;DHT22;25928;51.062;13.752;2022-12-08T17:51:50;7.40;1.00
816;DHT22;25928;51.062;13.752;2022-12-08T17:54:17;7.30;1.00
816;DHT22;25928;51.062;13.752;2022-12-08T17:56:43;7.30;1.00
816;DHT22;25928;51.062;13.752;2022-12-08T17:59:09;7.40;1.00
816;DHT22;25928;51.062;13.752;2022-12-08T18:01:35;7.40;1.00
816;DHT22;25928;51.062;13.752;2022-12-08T18:04:02;7.40;1.00
816;DHT22;25928;51.062;13.752;2022-12-08T18:06:28;7.40;1.00
816;DHT22;25928;51.062;13.752;2022-12-08T18:08:58;7.30;1.00
816;DHT22;25928;51.062;13.752;2022-12-08T18:11:26;7.20;1.00
816;DHT22;25928;51.062;13.752;2022-12-08T18:13:53;7.20;1.00
816;DHT22;25928;51.062;13.752;2022-12-08T18:16:22;7.20;1.00